Time;durP1;ratioP1;P1;durP2;ratioP2;P2;SDS_P1;SDS_P2;PMS_P1;PMS_P2;Temp;Humidity;BMP_temperature;BMP_pressure;BME280_temperature;BME280_humidity;BME280_pressure;Samples;Min_cycle;Max_cycle;Signal;HPM_P1;HPM_P2
2022/06/18 00:02:18;;;;;;;3.35;2.50;;;19.30;99.90;;;;;;5134215;28;20069;-59
2022/06/18 00:04:45;;;;;;;2.92;2.42;;;19.30;99.90;;;;;;5134501;28;20030;-54
2022/06/18 00:07:18;;;;;;;2.30;2.10;;;19.30;99.90;;;;;;5134421;28;20031;-56
2022/06/18 00:09:53;;;;;;;2.20;2.00;;;19.30;99.90;;;;;;5133985;28;20098;-57
2022/06/18 00:15:15;;;;;;;2.58;2.03;;;19.20;99.90;;;;;;5134508;28;20030;-57
2022/06/18 00:17:41;;;;;;;1.77;1.67;;;19.20;99.90;;;;;;5133962;28;20031;-59
2022/06/18 00:20:07;;;;;;;2.33;2.13;;;19.20;99.90;;;;;;5134254;28;20031;-54
2022/06/18 00:22:33;;;;;;;2.10;1.90;;;19.10;99.90;;;;;;5133790;28;20084;-57
2022/06/18 00:25:00;;;;;;;2.33;2.10;;;19.10;99.90;;;;;;5134317;28;20019;-58
2022/06/18 00:27:26;;;;;;;2.10;1.90;;;19.10;99.90;;;;;;5134009;28;20023;-57
2022/06/18 00:29:52;;;;;;;2.00;1.90;;;19.10;99.90;;;;;;5134251;28;20102;-56
2022/06/18 00:32:18;;;;;;;2.53;2.30;;;19.10;99.90;;;;;;5133906;28;20561;-57
2022/06/18 00:34:44;;;;;;;3.63;2.38;;;19.10;99.90;;;;;;5134107;28;20110;-58
2022/06/18 00:37:16;;;;;;;3.03;2.17;;;19.10;99.90;;;;;;5133573;28;20389;-57
2022/06/18 00:39:42;;;;;;;2.03;1.90;;;19.10;99.90;;;;;;5134151;28;20050;-57
2022/06/18 00:42:24;;;;;;;2.30;2.10;;;19.00;99.90;;;;;;5134317;28;20445;-58
2022/06/18 00:44:54;;;;;;;2.83;1.98;;;19.10;99.90;;;;;;5115736;28;20034;-57
2022/06/18 00:47:52;;;;;;;2.22;2.00;;;19.00;99.90;;;;;;5133770;28;20500;-56
2022/06/18 00:50:21;;;;;;;4.38;2.30;;;19.10;99.90;;;;;;5077260;28;20039;-57
2022/06/18 00:53:10;;;;;;;1.92;1.73;;;19.00;99.90;;;;;;5133804;28;20080;-56
2022/06/18 00:56:23;;;;;;;2.25;2.00;;;19.10;99.90;;;;;;5132838;28;20031;-56
2022/06/18 00:59:00;;;;;;;4.30;2.20;;;19.10;99.90;;;;;;5125107;28;20044;-55
2022/06/18 01:01:31;;;;;;;2.20;2.00;;;19.10;99.90;;;;;;5133952;28;20030;-57
2022/06/18 01:03:56;;;;;;;2.22;2.03;;;19.00;99.90;;;;;;5133692;28;20102;-57
2022/06/18 01:06:28;;;;;;;2.45;1.95;;;19.10;99.90;;;;;;5133337;28;20157;-56
2022/06/18 01:09:08;;;;;;;2.10;1.90;;;19.10;99.90;;;;;;5134565;27;20026;-58
2022/06/18 01:11:39;;;;;;;3.25;2.42;;;19.10;99.90;;;;;;5137487;27;20380;-57
2022/06/18 01:14:08;;;;;;;3.28;1.90;;;19.10;99.90;;;;;;5137279;27;20027;-58
2022/06/18 01:16:35;;;;;;;4.35;2.58;;;19.20;99.90;;;;;;5137386;27;20027;-56
2022/06/18 01:19:02;;;;;;;2.53;1.98;;;19.20;99.90;;;;;;5137033;27;20027;-55
2022/06/18 01:21:59;;;;;;;2.55;2.17;;;19.20;99.90;;;;;;5136950;27;20095;-59
2022/06/18 01:24:45;;;;;;;3.30;2.45;;;19.20;99.90;;;;;;5136994;27;20501;-58
2022/06/18 01:27:11;;;;;;;4.05;2.58;;;19.20;99.90;;;;;;5136827;27;20477;-57
2022/06/18 01:29:38;;;;;;;2.38;2.17;;;19.20;99.90;;;;;;5136921;27;20118;-56
2022/06/18 01:32:07;;;;;;;3.70;2.40;;;19.20;99.90;;;;;;5136844;27;20023;-56
2022/06/18 01:34:35;;;;;;;2.30;1.98;;;19.20;99.90;;;;;;5136791;27;20023;-55
2022/06/18 01:37:02;;;;;;;2.72;2.08;;;19.20;99.90;;;;;;5136788;27;20031;-57
2022/06/18 01:39:34;;;;;;;2.10;1.90;;;19.20;99.90;;;;;;5136893;27;20020;-59
2022/06/18 01:42:16;;;;;;;2.35;2.15;;;19.20;99.90;;;;;;5136676;27;20016;-56
2022/06/18 01:44:48;;;;;;;2.80;2.35;;;19.20;99.90;;;;;;5136955;27;20103;-52
2022/06/18 01:47:26;;;;;;;2.50;2.15;;;19.20;99.90;;;;;;5136786;27;20023;-54
2022/06/18 01:50:07;;;;;;;3.67;2.60;;;19.10;99.90;;;;;;5136553;27;20079;-58
2022/06/18 01:52:38;;;;;;;5.55;2.40;;;19.00;99.90;;;;;;5136687;27;20080;-56
2022/06/18 01:55:16;;;;;;;9.85;3.63;;;19.00;99.90;;;;;;5136592;27;20553;-56
2022/06/18 01:57:47;;;;;;;8.18;3.67;;;19.10;99.90;;;;;;5136307;27;20131;-57
2022/06/18 02:00:21;;;;;;;11.32;3.45;;;19.10;99.90;;;;;;5136664;27;20015;-53
2022/06/18 02:02:47;;;;;;;7.85;3.50;;;19.00;99.90;;;;;;5136453;27;20015;-57
2022/06/18 02:05:15;;;;;;;10.43;3.70;;;19.00;99.90;;;;;;5136003;27;20412;-56
2022/06/18 02:07:43;;;;;;;19.88;6.03;;;19.00;99.90;;;;;;5136209;27;20104;-57
2022/06/18 02:10:31;;;;;;;20.95;7.32;;;19.00;99.90;;;;;;5136447;27;20027;-54
2022/06/18 02:13:01;;;;;;;17.70;6.03;;;18.90;99.90;;;;;;5135173;27;20039;-56
2022/06/18 02:15:35;;;;;;;25.02;9.20;;;18.90;99.90;;;;;;5136088;27;20470;-59
2022/06/18 02:18:05;;;;;;;29.40;9.45;;;18.90;99.90;;;;;;5136198;27;20031;-54
2022/06/18 02:20:49;;;;;;;19.52;7.78;;;18.80;99.90;;;;;;5135675;27;20362;-58
2022/06/18 02:23:17;;;;;;;18.42;6.85;;;18.70;99.90;;;;;;5135857;27;20019;-56
2022/06/18 02:25:42;;;;;;;16.02;5.75;;;18.70;99.90;;;;;;5136143;27;20023;-56
2022/06/18 02:28:24;;;;;;;23.75;6.32;;;18.60;99.90;;;;;;5136055;27;20385;-56
2022/06/18 02:30:55;;;;;;;31.23;6.80;;;18.70;99.90;;;;;;5135807;27;20030;-56
2022/06/18 02:33:29;;;;;;;15.55;5.70;;;18.70;99.90;;;;;;5135585;27;20038;-52
2022/06/18 02:35:58;;;;;;;15.50;5.85;;;18.70;99.90;;;;;;5135820;27;20493;-56
2022/06/18 02:38:24;;;;;;;24.42;7.32;;;18.70;99.90;;;;;;5135578;27;20469;-58
2022/06/18 02:40:50;;;;;;;16.50;6.43;;;18.60;99.90;;;;;;5135864;27;20051;-56
2022/06/18 02:43:18;;;;;;;41.33;10.18;;;18.60;99.90;;;;;;5135727;27;20113;-57
2022/06/18 02:45:47;;;;;;;27.55;7.13;;;18.50;99.90;;;;;;5135720;27;20030;-55
2022/06/18 02:48:13;;;;;;;17.20;6.97;;;18.40;99.90;;;;;;5134973;27;20118;-57
2022/06/18 02:50:42;;;;;;;49.83;12.75;;;18.40;99.90;;;;;;5135299;27;20110;-58
2022/06/18 02:53:11;;;;;;;61.22;13.70;;;18.30;99.90;;;;;;5135341;27;20038;-54
2022/06/18 02:55:42;;;;;;;61.88;14.23;;;18.20;99.90;;;;;;5135214;27;20027;-55
2022/06/18 02:58:26;;;;;;;42.70;13.80;;;18.10;99.90;;;;;;5135138;27;20043;-58
2022/06/18 03:00:58;;;;;;;18.50;9.63;;;18.00;99.90;;;;;;5135107;27;20033;-57
2022/06/18 03:03:28;;;;;;;19.05;9.13;;;18.00;99.90;;;;;;5135187;27;20016;-56
2022/06/18 03:05:54;;;;;;;31.13;10.77;;;18.00;99.90;;;;;;5135095;27;20433;-57
2022/06/18 03:08:22;;;;;;;19.48;8.63;;;18.10;99.90;;;;;;5134977;27;20023;-59
2022/06/18 03:13:32;;;;;;;18.73;9.02;;;18.10;99.90;;;;;;5135167;27;20053;-58
2022/06/18 03:15:59;;;;;;;18.00;9.35;;;18.10;99.90;;;;;;5135400;27;20023;-55
2022/06/18 03:18:28;;;;;;;14.20;8.05;;;18.20;99.90;;;;;;5134636;27;20106;-58
2022/06/18 03:21:18;;;;;;;15.88;8.32;;;18.20;99.90;;;;;;5134759;27;20486;-54
2022/06/18 03:23:44;;;;;;;16.38;8.70;;;18.20;99.90;;;;;;5134855;27;20027;-56
2022/06/18 03:26:11;;;;;;;13.10;7.55;;;18.30;99.90;;;;;;5134700;27;20042;-56
2022/06/18 03:28:37;;;;;;;13.38;8.80;;;18.30;99.90;;;;;;5134799;27;20469;-57
2022/06/18 03:31:04;;;;;;;18.17;10.40;;;18.40;99.90;;;;;;5134527;27;20046;-53
2022/06/18 03:33:30;;;;;;;14.00;8.90;;;18.30;99.90;;;;;;5134264;27;20038;-57
2022/06/18 03:35:56;;;;;;;11.38;7.75;;;18.30;99.90;;;;;;5134593;27;20066;-58
2022/06/18 03:38:23;;;;;;;9.98;7.30;;;18.30;99.90;;;;;;5134712;27;20027;-58
2022/06/18 03:40:51;;;;;;;16.60;8.55;;;18.40;99.90;;;;;;5134463;27;20465;-56
2022/06/18 03:43:22;;;;;;;10.65;7.07;;;18.40;99.90;;;;;;5134448;27;20027;-58
2022/06/18 03:45:54;;;;;;;11.73;7.80;;;18.40;99.90;;;;;;5134264;27;20050;-55
2022/06/18 03:48:31;;;;;;;13.07;10.52;;;18.40;99.90;;;;;;5134269;27;20518;-57
2022/06/18 03:50:57;;;;;;;16.30;10.82;;;18.40;99.90;;;;;;5134662;27;20035;-56
2022/06/18 03:53:23;;;;;;;14.38;9.63;;;18.30;99.90;;;;;;5134620;27;20066;-56
2022/06/18 03:55:50;;;;;;;14.25;9.20;;;18.30;99.90;;;;;;5134604;27;20050;-53
2022/06/18 03:58:16;;;;;;;15.38;10.35;;;18.40;99.90;;;;;;5134020;27;20516;-58
2022/06/18 04:00:42;;;;;;;13.73;9.45;;;18.40;99.90;;;;;;5134307;27;20027;-57
2022/06/18 04:03:07;;;;;;;20.63;10.43;;;18.30;99.90;;;;;;5133929;28;20016;-55
2022/06/18 04:05:37;;;;;;;17.88;11.57;;;18.30;99.90;;;;;;5134408;28;20026;-57
2022/06/18 04:08:03;;;;;;;18.38;12.10;;;18.30;99.90;;;;;;5134136;28;20537;-56
2022/06/18 04:10:28;;;;;;;15.63;10.73;;;18.20;99.90;;;;;;5134146;28;20098;-58
2022/06/18 04:12:54;;;;;;;15.52;10.25;;;18.20;99.90;;;;;;5134180;28;20160;-57
2022/06/18 04:15:20;;;;;;;19.73;11.45;;;18.30;99.90;;;;;;5133954;28;20027;-55
2022/06/18 04:17:47;;;;;;;12.02;8.65;;;18.30;99.90;;;;;;5134258;28;20482;-56
2022/06/18 04:20:20;;;;;;;12.63;9.20;;;18.30;99.90;;;;;;5134344;28;20034;-58
2022/06/18 04:22:47;;;;;;;16.77;10.13;;;18.30;99.90;;;;;;5134022;28;20020;-55
2022/06/18 04:25:13;;;;;;;12.32;8.93;;;18.40;99.90;;;;;;5133907;28;20034;-59
2022/06/18 04:27:39;;;;;;;14.38;8.88;;;18.40;99.90;;;;;;5134293;28;20023;-57
2022/06/18 04:30:06;;;;;;;11.35;7.88;;;18.50;99.90;;;;;;5134082;28;20019;-56
2022/06/18 04:32:31;;;;;;;13.18;8.25;;;18.50;99.90;;;;;;5133903;28;20023;-59
2022/06/18 04:34:57;;;;;;;9.52;7.43;;;18.60;99.90;;;;;;5115737;28;20029;-55
2022/06/18 04:37:23;;;;;;;14.85;9.43;;;18.70;99.90;;;;;;5134104;28;20385;-56
2022/06/18 04:39:48;;;;;;;13.85;9.20;;;18.70;99.90;;;;;;5134093;28;20473;-59
2022/06/18 04:42:15;;;;;;;11.20;8.23;;;18.80;99.90;;;;;;5134007;28;20046;-55
2022/06/18 04:44:40;;;;;;;15.63;10.38;;;18.80;99.90;;;;;;5135993;27;20446;-55
2022/06/18 04:47:07;;;;;;;16.02;10.43;;;18.80;99.90;;;;;;5137741;27;20051;-56
2022/06/18 04:49:33;;;;;;;17.30;11.32;;;18.90;99.90;;;;;;5137897;27;20500;-55
2022/06/18 04:51:59;;;;;;;13.98;9.93;;;18.80;99.90;;;;;;5137964;27;20023;-57
2022/06/18 04:54:24;;;;;;;15.10;10.23;;;18.90;99.90;;;;;;5137666;27;20072;-58
2022/06/18 04:56:50;;;;;;;13.48;9.93;;;18.90;99.90;;;;;;5137408;27;20027;-57
2022/06/18 04:59:16;;;;;;;13.60;10.50;;;19.00;99.90;;;;;;5137233;27;20043;-59
2022/06/18 05:01:42;;;;;;;18.90;13.07;;;19.00;99.90;;;;;;5137588;27;20026;-58
2022/06/18 05:04:09;;;;;;;26.80;18.45;;;19.10;99.90;;;;;;5137433;27;20015;-59
2022/06/18 05:06:35;;;;;;;34.80;20.30;;;19.10;99.90;;;;;;5137539;27;20470;-57
2022/06/18 05:09:00;;;;;;;32.45;20.10;;;19.20;99.90;;;;;;5137393;27;20403;-55
2022/06/18 05:11:26;;;;;;;34.63;20.13;;;19.20;99.90;;;;;;5137525;27;20023;-58
2022/06/18 05:13:52;;;;;;;41.28;22.33;;;19.20;99.90;;;;;;5137312;27;20024;-55
2022/06/18 05:16:18;;;;;;;37.85;22.48;;;19.10;99.90;;;;;;5137275;27;20382;-53
2022/06/18 05:18:46;;;;;;;37.90;23.45;;;19.20;99.90;;;;;;5137164;27;20434;-57
2022/06/18 05:21:11;;;;;;;49.58;27.58;;;19.20;99.90;;;;;;5137086;27;20023;-56
2022/06/18 05:23:37;;;;;;;57.25;27.75;;;19.40;99.90;;;;;;5137207;27;20035;-58
2022/06/18 05:26:06;;;;;;;53.90;27.00;;;19.50;99.90;;;;;;5137016;27;20022;-57
2022/06/18 05:28:31;;;;;;;39.53;22.52;;;19.50;99.90;;;;;;5137075;27;20027;-58
2022/06/18 05:30:57;;;;;;;64.13;29.35;;;19.60;99.90;;;;;;5136941;27;20087;-58
2022/06/18 05:33:23;;;;;;;66.05;28.63;;;19.50;99.90;;;;;;5136827;27;20023;-55
2022/06/18 05:35:48;;;;;;;47.97;25.00;;;19.50;99.90;;;;;;5136798;27;20104;-57
2022/06/18 05:38:18;;;;;;;45.03;23.45;;;19.60;99.90;;;;;;5136851;27;20495;-53
2022/06/18 05:40:43;;;;;;;55.47;27.13;;;19.90;99.90;;;;;;5136805;27;20019;-58
2022/06/18 05:43:09;;;;;;;74.45;31.65;;;20.00;99.90;;;;;;5136381;27;20473;-59
2022/06/18 05:45:35;;;;;;;53.30;27.77;;;20.10;99.90;;;;;;5136912;27;20023;-57
2022/06/18 05:48:01;;;;;;;55.83;27.13;;;20.10;99.90;;;;;;5136478;27;20536;-55
2022/06/18 05:50:27;;;;;;;61.53;26.45;;;20.20;99.90;;;;;;5136508;27;20031;-55
2022/06/18 05:52:52;;;;;;;58.15;26.90;;;20.10;99.90;;;;;;5136656;27;20029;-58
2022/06/18 05:55:22;;;;;;;66.82;30.15;;;20.20;99.90;;;;;;5136111;27;20027;-58
2022/06/18 05:57:51;;;;;;;67.60;28.15;;;20.20;99.90;;;;;;5135953;27;20043;-58
2022/06/18 06:00:20;;;;;;;54.75;25.45;;;20.20;99.90;;;;;;5136697;27;20374;-56
2022/06/18 06:02:46;;;;;;;92.63;34.85;;;20.30;99.90;;;;;;5136655;27;20015;-57
2022/06/18 06:05:11;;;;;;;62.58;28.60;;;20.20;99.90;;;;;;5136518;27;20046;-56
2022/06/18 06:07:37;;;;;;;72.03;29.65;;;20.10;99.90;;;;;;5136480;27;20024;-56
2022/06/18 06:13:27;;;;;;;90.70;31.58;;;19.80;99.90;;;;;;5032985;28;20036;-54
2022/06/18 06:15:53;;;;;;;69.85;28.38;;;19.60;99.90;;;;;;5128316;27;20035;-56
2022/06/18 06:18:21;;;;;;;57.42;25.73;;;19.80;99.90;;;;;;5135934;27;20110;-57
2022/06/18 06:20:51;;;;;;;58.13;26.35;;;20.00;99.90;;;;;;5136065;27;20021;-58
2022/06/18 06:23:17;;;;;;;64.93;27.73;;;20.30;99.90;;;;;;5135954;27;20060;-56
2022/06/18 06:25:45;;;;;;;61.22;25.05;;;20.40;99.90;;;;;;5135904;27;20023;-54
2022/06/18 06:28:14;;;;;;;59.95;24.17;;;20.40;99.90;;;;;;5135805;27;20023;-56
2022/06/18 06:30:40;;;;;;;49.05;22.83;;;20.40;99.90;;;;;;5136106;27;20030;-56
2022/06/18 06:33:06;;;;;;;72.93;26.05;;;20.50;99.90;;;;;;5135687;27;20469;-58
2022/06/18 06:35:32;;;;;;;50.97;20.80;;;20.60;99.90;;;;;;5135694;27;20037;-56
2022/06/18 06:37:57;;;;;;;45.83;20.55;;;20.70;99.90;;;;;;5135565;27;20023;-58
2022/06/18 06:40:24;;;;;;;59.60;23.75;;;20.80;99.90;;;;;;5135370;27;20046;-55
2022/06/18 06:42:51;;;;;;;47.30;19.92;;;20.80;99.90;;;;;;5135649;27;20015;-58
2022/06/18 06:45:23;;;;;;;47.70;18.98;;;20.80;99.90;;;;;;5135380;27;20023;-54
2022/06/18 06:47:50;;;;;;;35.13;16.73;;;20.90;99.90;;;;;;5135467;27;20413;-55
2022/06/18 06:50:17;;;;;;;42.22;18.13;;;21.10;99.90;;;;;;5135462;27;20062;-56
2022/06/18 06:52:43;;;;;;;31.00;14.38;;;21.20;99.90;;;;;;5135508;27;20027;-57
2022/06/18 06:58:03;;;;;;;;;;;21.50;99.90;;;;;;5135614;27;20053;-56
2022/06/18 07:00:31;;;;;;;21.77;10.43;;;21.80;99.90;;;;;;5135181;27;19994;-55
2022/06/18 07:02:56;;;;;;;15.20;7.32;;;21.90;99.90;;;;;;5135077;27;20026;-57
2022/06/18 07:05:22;;;;;;;16.00;8.40;;;21.90;99.90;;;;;;5135237;27;20385;-58
2022/06/18 07:07:48;;;;;;;14.88;7.45;;;21.80;99.90;;;;;;5134244;27;20492;-55
2022/06/18 07:10:13;;;;;;;13.65;7.40;;;22.00;99.90;;;;;;5134899;27;20023;-54
2022/06/18 07:12:39;;;;;;;12.70;6.28;;;22.10;99.90;;;;;;5134910;27;20034;-54
2022/06/18 07:15:07;;;;;;;11.80;5.65;;;22.30;99.90;;;;;;5135024;27;20023;-58
2022/06/18 07:17:33;;;;;;;10.48;5.10;;;22.40;99.90;;;;;;5134680;27;20388;-58
2022/06/18 07:19:59;;;;;;;6.45;4.50;;;22.40;99.90;;;;;;5134740;27;20476;-58
2022/06/18 07:22:25;;;;;;;8.43;4.57;;;22.50;99.90;;;;;;5134745;27;20064;-55
2022/06/18 07:24:51;;;;;;;9.13;4.70;;;22.70;99.90;;;;;;5134856;27;20019;-57
2022/06/18 07:27:18;;;;;;;6.35;3.58;;;22.90;99.70;;;;;;5134678;27;20030;-56
2022/06/18 07:29:44;;;;;;;5.93;3.15;;;23.00;98.40;;;;;;5134928;27;20389;-58
2022/06/18 07:32:19;;;;;;;4.57;3.47;;;23.00;99.20;;;;;;5134630;27;20177;-58
2022/06/18 07:34:45;;;;;;;4.88;3.65;;;23.20;99.10;;;;;;5134483;27;20492;-57
2022/06/18 07:37:11;;;;;;;6.05;2.75;;;23.20;99.90;;;;;;5134769;27;20023;-56
2022/06/18 07:39:37;;;;;;;4.68;2.83;;;23.30;99.90;;;;;;5134389;27;20034;-57
2022/06/18 07:42:04;;;;;;;4.40;2.70;;;23.40;99.20;;;;;;5134675;27;20058;-55
2022/06/18 07:44:31;;;;;;;5.25;2.97;;;23.70;98.70;;;;;;5134772;27;20027;-56
2022/06/18 07:47:03;;;;;;;4.63;3.17;;;23.90;97.10;;;;;;5134534;27;20106;-56
2022/06/18 07:49:29;;;;;;;3.03;2.80;;;24.70;96.90;;;;;;5134237;27;20493;-55
2022/06/18 07:51:55;;;;;;;3.95;2.65;;;27.10;95.00;;;;;;5134605;27;20334;-57
2022/06/18 07:54:21;;;;;;;3.25;2.70;;;29.30;90.40;;;;;;5134241;27;20153;-53
2022/06/18 07:56:47;;;;;;;3.08;2.50;;;30.90;78.00;;;;;;5134470;27;20118;-58
2022/06/18 07:59:13;;;;;;;2.88;2.35;;;31.70;72.00;;;;;;5134172;27;20458;-58
2022/06/18 08:01:39;;;;;;;3.08;1.95;;;32.50;68.70;;;;;;5134259;27;20019;-58
2022/06/18 08:04:06;;;;;;;2.45;2.20;;;33.10;63.00;;;;;;5134139;28;20083;-55
2022/06/18 08:06:32;;;;;;;2.85;1.60;;;33.50;60.10;;;;;;5134377;28;20050;-57
2022/06/18 08:08:58;;;;;;;2.85;1.42;;;33.60;59.40;;;;;;5134052;28;20016;-56
2022/06/18 08:11:25;;;;;;;2.40;1.20;;;33.80;53.70;;;;;;5134178;28;20015;-58
2022/06/18 08:13:52;;;;;;;2.33;1.33;;;34.10;54.10;;;;;;5134454;28;20095;-56
2022/06/18 08:16:20;;;;;;;3.17;1.10;;;32.90;50.60;;;;;;5134145;28;20127;-52
2022/06/18 08:18:46;;;;;;;2.20;1.40;;;32.20;52.40;;;;;;5136635;27;20059;-54
2022/06/18 08:21:36;;;;;;;1.98;1.23;;;32.10;52.10;;;;;;5138617;27;20015;-53
2022/06/18 08:24:09;;;;;;;1.25;1.08;;;31.70;52.70;;;;;;5137312;27;20027;-55
2022/06/18 08:26:36;;;;;;;1.63;1.40;;;31.40;55.90;;;;;;5138243;27;20046;-57
2022/06/18 08:29:04;;;;;;;1.38;1.27;;;31.80;54.60;;;;;;5138447;27;20424;-57
2022/06/18 08:31:30;;;;;;;2.25;1.40;;;32.30;51.60;;;;;;5138312;27;20023;-54
2022/06/18 08:33:57;;;;;;;1.50;1.40;;;33.20;51.40;;;;;;5138062;27;20083;-56
2022/06/18 08:36:23;;;;;;;1.77;1.20;;;33.50;51.80;;;;;;5138009;27;20033;-57
2022/06/18 08:38:50;;;;;;;1.95;1.48;;;33.90;51.60;;;;;;5137963;27;20080;-55
2022/06/18 08:41:30;;;;;;;3.90;1.50;;;34.20;49.70;;;;;;5138209;27;20117;-57
2022/06/18 08:44:10;;;;;;;1.40;1.00;;;34.60;50.50;;;;;;5137877;27;20019;-57
2022/06/18 08:46:53;;;;;;;2.08;1.10;;;34.80;52.00;;;;;;5137854;27;20064;-56
2022/06/18 08:49:47;;;;;;;3.15;1.70;;;34.80;50.10;;;;;;5137636;27;20023;-58
2022/06/18 08:52:30;;;;;;;2.75;1.05;;;35.00;49.10;;;;;;5137568;27;20112;-58
2022/06/18 08:55:11;;;;;;;2.90;1.40;;;35.20;48.40;;;;;;5137778;27;20024;-59
2022/06/18 08:58:04;;;;;;;2.30;1.40;;;35.30;46.60;;;;;;5137363;27;20039;-58
2022/06/18 09:00:32;;;;;;;;;;;35.00;47.80;;;;;;5138051;27;20047;-52
2022/06/18 09:03:08;;;;;;;1.90;1.30;;;34.90;46.70;;;;;;5137781;27;19946;-59
2022/06/18 09:05:49;;;;;;;1.60;1.50;;;35.30;49.20;;;;;;5137301;27;20019;-55
2022/06/18 09:08:21;;;;;;;1.38;1.27;;;35.00;47.00;;;;;;5137332;27;20030;-59
2022/06/18 09:11:01;;;;;;;1.33;1.23;;;34.90;47.80;;;;;;5137443;27;20103;-58
2022/06/18 09:13:48;;;;;;;3.30;1.40;;;35.10;48.00;;;;;;5137242;27;20030;-55
2022/06/18 09:16:19;;;;;;;2.40;1.27;;;34.20;50.30;;;;;;5137360;27;20019;-56
2022/06/18 09:18:53;;;;;;;2.08;1.23;;;33.10;48.80;;;;;;5137120;27;20027;-60
2022/06/18 09:21:52;;;;;;;1.38;1.20;;;33.40;52.20;;;;;;5137223;27;20409;-55
2022/06/18 09:24:31;;;;;;;1.20;1.10;;;32.70;51.10;;;;;;5119273;27;20027;-58
2022/06/18 09:27:05;;;;;;;1.83;1.10;;;31.50;50.70;;;;;;5137050;27;20034;-58
2022/06/18 09:30:02;;;;;;;1.30;1.20;;;30.70;52.80;;;;;;5136391;27;20035;-55
2022/06/18 09:32:51;;;;;;;2.92;1.55;;;31.70;51.00;;;;;;5136860;27;20076;-57
2022/06/18 09:35:45;;;;;;;1.35;1.10;;;32.20;50.80;;;;;;5122915;27;20049;-59
2022/06/18 09:38:14;;;;;;;1.80;1.25;;;32.90;51.40;;;;;;5136799;27;20492;-58
2022/06/18 09:41:04;;;;;;;2.05;1.75;;;33.00;52.30;;;;;;5136764;27;20023;-58
2022/06/18 09:44:07;;;;;;;1.60;1.50;;;33.40;54.10;;;;;;5136686;27;20471;-59
2022/06/18 09:47:00;;;;;;;2.88;1.85;;;33.40;51.10;;;;;;5136711;27;20019;-57
2022/06/18 09:49:28;;;;;;;1.40;1.30;;;33.00;50.80;;;;;;5136573;27;20027;-58
2022/06/18 09:54:30;;;;;;;3.00;1.33;;;32.20;52.40;;;;;;5136889;27;20019;-56
2022/06/18 09:57:00;;;;;;;1.50;1.40;;;32.60;54.40;;;;;;5136489;27;20027;-57
2022/06/18 09:59:48;;;;;;;1.67;1.15;;;32.70;52.50;;;;;;5136558;27;20023;-58
2022/06/18 10:02:22;;;;;;;1.27;1.17;;;33.50;48.40;;;;;;5135611;27;20032;-57
2022/06/18 10:07:39;;;;;;;1.67;1.27;;;33.90;50.70;;;;;;5136431;27;20035;-57
2022/06/18 10:10:14;;;;;;;1.30;1.20;;;34.20;50.80;;;;;;5136281;27;20054;-57
2022/06/18 10:12:45;;;;;;;1.77;1.67;;;34.70;48.60;;;;;;5136474;27;20374;-58
2022/06/18 10:15:15;;;;;;;1.30;1.20;;;34.40;46.00;;;;;;5136423;27;20038;-56
2022/06/18 10:18:19;;;;;;;2.15;1.23;;;34.40;48.30;;;;;;5135778;27;20050;-58
2022/06/18 10:21:01;;;;;;;1.30;1.20;;;34.50;45.90;;;;;;5136049;27;20026;-56
2022/06/18 10:23:46;;;;;;;;;;;34.80;47.10;;;;;;5136686;27;20023;-58
2022/06/18 10:26:14;;;;;;;1.20;1.10;;;35.10;45.70;;;;;;5135796;27;19947;-59
2022/06/18 10:29:07;;;;;;;1.42;1.33;;;35.40;46.80;;;;;;5136098;27;20478;-56
2022/06/18 10:31:41;;;;;;;1.33;1.10;;;35.80;49.60;;;;;;5135540;27;20033;-58
2022/06/18 10:34:25;;;;;;;1.13;1.02;;;36.20;45.40;;;;;;5135771;27;20410;-56
2022/06/18 10:37:14;;;;;;;1.30;1.20;;;36.40;44.00;;;;;;5135895;27;20110;-58
2022/06/18 10:39:58;;;;;;;1.30;1.20;;;36.40;45.90;;;;;;5135945;27;20389;-58
2022/06/18 10:42:29;;;;;;;2.83;1.40;;;36.60;43.70;;;;;;5135576;27;20382;-57
2022/06/18 10:45:01;;;;;;;1.13;1.08;;;36.60;43.40;;;;;;5135551;27;20056;-59
2022/06/18 10:47:37;;;;;;;1.65;1.25;;;36.70;45.10;;;;;;5135476;27;20025;-59
2022/06/18 10:50:09;;;;;;;1.52;1.40;;;36.10;44.80;;;;;;5135405;27;20032;-56
2022/06/18 10:52:36;;;;;;;1.50;1.40;;;35.50;44.20;;;;;;5135334;27;20019;-58
2022/06/18 10:55:18;;;;;;;1.40;1.30;;;35.60;44.90;;;;;;5135449;27;20019;-57
2022/06/18 10:57:45;;;;;;;1.33;1.23;;;35.80;45.30;;;;;;5135169;27;20046;-57
2022/06/18 11:00:17;;;;;;;1.65;1.30;;;35.60;45.60;;;;;;5135241;27;20030;-57
2022/06/18 11:02:43;;;;;;;;;;;35.80;44.90;;;;;;5135404;27;20104;-59
2022/06/18 11:05:31;;;;;;;1.38;1.20;;;35.40;42.00;;;;;;5134991;27;19956;-56
2022/06/18 11:08:00;;;;;;;1.33;1.23;;;35.20;46.90;;;;;;5135164;27;20015;-59
2022/06/18 11:10:44;;;;;;;1.30;1.15;;;35.70;46.30;;;;;;5134984;27;20019;-57
2022/06/18 11:13:21;;;;;;;1.15;1.13;;;36.20;47.90;;;;;;5135134;27;20037;-57
2022/06/18 11:15:47;;;;;;;2.45;1.58;;;36.50;44.90;;;;;;5135042;27;20059;-57
2022/06/18 11:18:18;;;;;;;1.30;1.30;;;36.50;46.10;;;;;;5134915;27;20546;-59
2022/06/18 11:20:57;;;;;;;1.20;1.10;;;36.40;43.60;;;;;;5135096;27;20059;-57
2022/06/18 11:23:23;;;;;;;1.42;1.33;;;35.90;44.60;;;;;;5134851;27;20019;-55
2022/06/18 11:25:52;;;;;;;1.40;1.30;;;35.90;45.00;;;;;;5135107;27;20488;-57
2022/06/18 11:28:32;;;;;;;1.77;1.30;;;35.90;46.30;;;;;;5134707;27;20019;-56
2022/06/18 11:30:59;;;;;;;2.85;1.25;;;35.70;44.70;;;;;;5134485;27;20027;-57
2022/06/18 11:33:50;;;;;;;1.33;1.25;;;35.00;43.60;;;;;;5134556;27;20031;-59
2022/06/18 11:36:19;;;;;;;1.63;1.52;;;35.20;46.40;;;;;;5134737;27;20019;-57
2022/06/18 11:38:54;;;;;;;1.85;1.40;;;35.50;43.70;;;;;;5134452;27;20019;-59
2022/06/18 11:41:30;;;;;;;1.23;1.15;;;34.60;43.40;;;;;;5134848;27;20024;-57
2022/06/18 11:44:17;;;;;;;1.35;1.10;;;33.90;44.40;;;;;;5134400;27;20468;-57
2022/06/18 11:46:45;;;;;;;3.10;1.45;;;34.30;47.80;;;;;;5134196;27;20028;-59
2022/06/18 11:49:27;;;;;;;1.23;1.13;;;34.70;46.30;;;;;;5134200;27;20027;-57
2022/06/18 11:52:17;;;;;;;1.48;1.38;;;35.00;47.00;;;;;;5134548;27;20031;-57
2022/06/18 11:54:59;;;;;;;1.50;1.40;;;35.10;45.90;;;;;;5131140;27;20106;-57
2022/06/18 11:57:41;;;;;;;1.63;1.52;;;35.20;49.20;;;;;;5131345;27;20111;-57
2022/06/18 12:00:12;;;;;;;1.45;1.23;;;35.30;46.30;;;;;;5134139;27;20474;-56
2022/06/18 12:02:51;;;;;;;1.30;1.20;;;35.20;44.90;;;;;;5134342;27;20058;-56
2022/06/18 12:05:22;;;;;;;1.50;1.40;;;34.80;45.00;;;;;;5134490;28;20020;-59
2022/06/18 12:08:00;;;;;;;1.38;1.27;;;35.00;46.60;;;;;;5134268;28;20023;-59
2022/06/18 12:10:41;;;;;;;1.45;1.35;;;35.30;49.90;;;;;;5134412;28;20031;-60
2022/06/18 12:13:13;;;;;;;1.30;1.20;;;34.90;45.10;;;;;;5134220;28;20030;-59
2022/06/18 12:16:03;;;;;;;1.65;1.33;;;35.20;43.60;;;;;;5134166;28;20032;-58
2022/06/18 12:19:19;;;;;;;1.60;1.42;;;35.40;43.50;;;;;;5134050;28;20054;-58
2022/06/18 12:21:59;;;;;;;1.23;1.13;;;35.20;43.00;;;;;;5091111;28;20031;-59
2022/06/18 12:24:46;;;;;;;1.58;1.48;;;35.10;44.80;;;;;;5134088;28;20019;-57
2022/06/18 12:27:28;;;;;;;1.52;1.42;;;34.90;43.50;;;;;;5133962;28;20034;-57
2022/06/18 12:30:06;;;;;;;1.65;1.55;;;34.90;43.90;;;;;;5134126;28;20087;-56
2022/06/18 12:33:09;;;;;;;1.45;1.35;;;35.30;42.80;;;;;;5133934;28;20058;-58
2022/06/18 12:35:40;;;;;;;2.08;1.50;;;35.50;40.70;;;;;;5133796;28;20482;-58
2022/06/18 12:38:14;;;;;;;2.45;1.23;;;35.70;42.00;;;;;;5134150;28;20114;-56
2022/06/18 12:41:02;;;;;;;1.20;1.20;;;35.40;40.00;;;;;;5133960;28;20420;-57
2022/06/18 12:43:53;;;;;;;1.35;1.25;;;35.20;42.80;;;;;;5133961;28;20372;-58
2022/06/18 12:46:28;;;;;;;1.23;1.13;;;35.20;43.40;;;;;;5134006;28;20153;-58
2022/06/18 12:49:15;;;;;;;1.88;1.50;;;35.50;43.40;;;;;;5133716;28;20033;-58
2022/06/18 12:51:58;;;;;;;1.25;1.15;;;35.60;45.10;;;;;;5133790;28;20058;-56
2022/06/18 12:54:52;;;;;;;1.00;1.00;;;35.10;44.00;;;;;;5133762;28;20035;-58
2022/06/18 12:57:33;;;;;;;1.27;1.23;;;34.70;43.30;;;;;;5133572;28;20409;-58
2022/06/18 13:00:00;;;;;;;1.95;1.85;;;34.80;45.80;;;;;;5133719;28;20020;-59
2022/06/18 13:02:44;;;;;;;1.40;1.30;;;35.20;44.70;;;;;;5133776;28;20019;-58
2022/06/18 13:05:27;;;;;;;1.75;1.23;;;35.20;43.70;;;;;;5134916;27;20092;-59
2022/06/18 13:08:07;;;;;;;1.30;1.17;;;35.30;45.00;;;;;;5137460;27;20048;-57
2022/06/18 13:10:41;;;;;;;1.20;1.15;;;35.50;45.30;;;;;;5137679;27;20026;-59
2022/06/18 13:13:21;;;;;;;2.13;1.73;;;35.60;46.80;;;;;;5137246;27;20029;-59
2022/06/18 13:15:52;;;;;;;1.50;1.40;;;35.80;42.40;;;;;;5137580;27;20038;-59
2022/06/18 13:18:27;;;;;;;1.80;1.55;;;35.50;45.30;;;;;;5137172;27;20030;-54
2022/06/18 13:20:57;;;;;;;1.77;1.52;;;35.60;43.50;;;;;;5137073;27;20542;-58
2022/06/18 13:29:29;;;;;;;1.40;1.35;;;35.50;44.00;;;;;;5137402;27;20488;-57
2022/06/18 13:32:00;;;;;;;3.45;1.80;;;35.40;41.40;;;;;;5137113;27;20027;-58